sensor_id;sensor_type;location;lat;lon;timestamp;P1;durP1;ratioP1;P2;durP2;ratioP2
7501;SDS011;3792;47.740;7.606;2022-12-05T00:00:02;21.57;;;12.63;;
7501;SDS011;3792;47.740;7.606;2022-12-05T00:02:31;20.67;;;12.70;;
7501;SDS011;3792;47.740;7.606;2022-12-05T00:04:58;17.10;;;11.30;;
7501;SDS011;3792;47.740;7.606;2022-12-05T00:07:25;18.83;;;11.00;;
7501;SDS011;3792;47.740;7.606;2022-12-05T00:09:54;15.53;;;10.97;;
7501;SDS011;3792;47.740;7.606;2022-12-05T00:12:21;17.67;;;11.00;;
7501;SDS011;3792;47.740;7.606;2022-12-05T00:14:48;17.80;;;10.77;;
7501;SDS011;3792;47.740;7.606;2022-12-05T00:17:16;19.53;;;12.23;;
7501;SDS011;3792;47.740;7.606;2022-12-05T00:19:43;16.67;;;10.90;;
7501;SDS011;3792;47.740;7.606;2022-12-05T00:22:10;16.87;;;10.20;;
7501;SDS011;3792;47.740;7.606;2022-12-05T00:24:37;14.30;;;9.30;;
7501;SDS011;3792;47.740;7.606;2022-12-05T00:27:06;15.53;;;10.10;;
7501;SDS011;3792;47.740;7.606;2022-12-05T00:29:33;15.07;;;9.60;;
7501;SDS011;3792;47.740;7.606;2022-12-05T00:32:00;15.03;;;9.80;;
7501;SDS011;3792;47.740;7.606;2022-12-05T00:34:27;14.83;;;10.03;;
7501;SDS011;3792;47.740;7.606;2022-12-05T00:36:54;15.47;;;9.73;;
7501;SDS011;3792;47.740;7.606;2022-12-05T00:39:21;16.20;;;9.83;;
7501;SDS011;3792;47.740;7.606;2022-12-05T00:41:48;12.50;;;8.57;;
7501;SDS011;3792;47.740;7.606;2022-12-05T00:44:17;11.70;;;7.90;;
7501;SDS011;3792;47.740;7.606;2022-12-05T00:46:44;13.70;;;8.50;;
7501;SDS011;3792;47.740;7.606;2022-12-05T00:49:11;10.23;;;7.07;;
7501;SDS011;3792;47.740;7.606;2022-12-05T00:51:39;11.00;;;7.03;;
7501;SDS011;3792;47.740;7.606;2022-12-05T00:54:09;9.93;;;7.23;;
7501;SDS011;3792;47.740;7.606;2022-12-05T00:56:37;10.73;;;7.73;;
7501;SDS011;3792;47.740;7.606;2022-12-05T00:59:05;10.80;;;6.83;;
7501;SDS011;3792;47.740;7.606;2022-12-05T01:01:34;13.93;;;8.67;;
7501;SDS011;3792;47.740;7.606;2022-12-05T01:04:03;10.07;;;7.33;;
7501;SDS011;3792;47.740;7.606;2022-12-05T01:06:32;12.17;;;7.60;;
7501;SDS011;3792;47.740;7.606;2022-12-05T01:08:59;11.47;;;7.00;;
7501;SDS011;3792;47.740;7.606;2022-12-05T01:11:27;9.77;;;7.00;;
7501;SDS011;3792;47.740;7.606;2022-12-05T01:13:54;10.23;;;6.97;;
7501;SDS011;3792;47.740;7.606;2022-12-05T01:16:23;8.97;;;6.87;;
7501;SDS011;3792;47.740;7.606;2022-12-05T01:18:53;10.23;;;6.70;;
7501;SDS011;3792;47.740;7.606;2022-12-05T01:21:20;9.73;;;6.33;;
7501;SDS011;3792;47.740;7.606;2022-12-05T01:23:48;9.37;;;6.67;;
7501;SDS011;3792;47.740;7.606;2022-12-05T01:26:16;8.83;;;7.00;;
7501;SDS011;3792;47.740;7.606;2022-12-05T01:28:44;11.70;;;6.67;;
7501;SDS011;3792;47.740;7.606;2022-12-05T01:31:14;9.00;;;6.47;;
7501;SDS011;3792;47.740;7.606;2022-12-05T01:33:46;7.87;;;5.77;;
7501;SDS011;3792;47.740;7.606;2022-12-05T01:36:15;8.50;;;5.80;;
7501;SDS011;3792;47.740;7.606;2022-12-05T01:38:42;8.33;;;5.90;;
7501;SDS011;3792;47.740;7.606;2022-12-05T01:41:10;9.40;;;6.23;;
7501;SDS011;3792;47.740;7.606;2022-12-05T01:43:52;6.80;;;5.33;;
7501;SDS011;3792;47.740;7.606;2022-12-05T01:46:24;7.07;;;5.17;;
7501;SDS011;3792;47.740;7.606;2022-12-05T01:48:54;7.27;;;5.17;;
7501;SDS011;3792;47.740;7.606;2022-12-05T01:51:26;6.70;;;5.60;;
7501;SDS011;3792;47.740;7.606;2022-12-05T01:53:53;5.63;;;4.63;;
7501;SDS011;3792;47.740;7.606;2022-12-05T01:56:21;5.43;;;4.20;;
7501;SDS011;3792;47.740;7.606;2022-12-05T01:58:48;6.20;;;4.87;;
7501;SDS011;3792;47.740;7.606;2022-12-05T02:01:16;5.77;;;4.27;;
7501;SDS011;3792;47.740;7.606;2022-12-05T02:03:45;5.53;;;4.03;;
7501;SDS011;3792;47.740;7.606;2022-12-05T02:06:15;4.20;;;3.70;;
7501;SDS011;3792;47.740;7.606;2022-12-05T02:08:44;5.30;;;4.13;;
7501;SDS011;3792;47.740;7.606;2022-12-05T02:11:12;5.53;;;4.43;;
7501;SDS011;3792;47.740;7.606;2022-12-05T02:13:44;4.80;;;4.07;;
7501;SDS011;3792;47.740;7.606;2022-12-05T02:16:38;5.10;;;4.33;;
7501;SDS011;3792;47.740;7.606;2022-12-05T02:19:18;6.27;;;4.37;;
7501;SDS011;3792;47.740;7.606;2022-12-05T02:22:10;7.10;;;4.47;;
7501;SDS011;3792;47.740;7.606;2022-12-05T02:24:56;5.70;;;4.57;;
7501;SDS011;3792;47.740;7.606;2022-12-05T02:27:40;5.70;;;4.23;;
7501;SDS011;3792;47.740;7.606;2022-12-05T02:30:34;5.67;;;4.30;;
7501;SDS011;3792;47.740;7.606;2022-12-05T02:33:06;4.67;;;3.97;;
7501;SDS011;3792;47.740;7.606;2022-12-05T02:35:45;4.63;;;4.00;;
7501;SDS011;3792;47.740;7.606;2022-12-05T02:38:20;5.80;;;4.47;;
7501;SDS011;3792;47.740;7.606;2022-12-05T02:40:56;6.07;;;4.37;;
7501;SDS011;3792;47.740;7.606;2022-12-05T02:43:29;4.90;;;4.13;;
7501;SDS011;3792;47.740;7.606;2022-12-05T02:46:05;5.93;;;4.10;;
7501;SDS011;3792;47.740;7.606;2022-12-05T02:48:35;5.00;;;4.23;;
7501;SDS011;3792;47.740;7.606;2022-12-05T02:51:04;5.53;;;4.37;;
7501;SDS011;3792;47.740;7.606;2022-12-05T02:53:34;5.57;;;4.43;;
7501;SDS011;3792;47.740;7.606;2022-12-05T02:56:03;4.90;;;3.97;;
7501;SDS011;3792;47.740;7.606;2022-12-05T02:58:33;5.37;;;4.10;;
7501;SDS011;3792;47.740;7.606;2022-12-05T03:01:05;6.20;;;4.00;;
7501;SDS011;3792;47.740;7.606;2022-12-05T03:03:32;5.33;;;4.17;;
7501;SDS011;3792;47.740;7.606;2022-12-05T03:06:02;4.87;;;4.00;;
7501;SDS011;3792;47.740;7.606;2022-12-05T03:08:34;5.33;;;4.07;;
7501;SDS011;3792;47.740;7.606;2022-12-05T03:11:04;5.80;;;5.03;;
7501;SDS011;3792;47.740;7.606;2022-12-05T03:13:33;7.07;;;5.00;;
7501;SDS011;3792;47.740;7.606;2022-12-05T03:16:06;7.43;;;5.13;;
7501;SDS011;3792;47.740;7.606;2022-12-05T03:18:38;6.30;;;4.97;;
7501;SDS011;3792;47.740;7.606;2022-12-05T03:21:14;5.00;;;4.13;;
7501;SDS011;3792;47.740;7.606;2022-12-05T03:23:48;4.13;;;3.63;;
7501;SDS011;3792;47.740;7.606;2022-12-05T03:26:23;5.13;;;3.80;;
7501;SDS011;3792;47.740;7.606;2022-12-05T03:29:00;5.17;;;3.70;;
7501;SDS011;3792;47.740;7.606;2022-12-05T03:31:41;7.37;;;4.77;;
7501;SDS011;3792;47.740;7.606;2022-12-05T03:34:11;7.10;;;5.43;;
7501;SDS011;3792;47.740;7.606;2022-12-05T03:36:43;20.43;;;11.27;;
7501;SDS011;3792;47.740;7.606;2022-12-05T03:39:17;22.83;;;11.60;;
7501;SDS011;3792;47.740;7.606;2022-12-05T03:41:50;11.53;;;6.43;;
7501;SDS011;3792;47.740;7.606;2022-12-05T03:44:23;7.37;;;5.40;;
7501;SDS011;3792;47.740;7.606;2022-12-05T03:46:59;8.93;;;5.67;;
7501;SDS011;3792;47.740;7.606;2022-12-05T03:49:31;8.07;;;6.13;;
7501;SDS011;3792;47.740;7.606;2022-12-05T03:52:02;8.53;;;5.80;;
7501;SDS011;3792;47.740;7.606;2022-12-05T03:54:34;9.73;;;7.13;;
7501;SDS011;3792;47.740;7.606;2022-12-05T03:57:04;8.43;;;6.50;;
7501;SDS011;3792;47.740;7.606;2022-12-05T03:59:38;9.77;;;6.60;;
7501;SDS011;3792;47.740;7.606;2022-12-05T04:02:12;10.63;;;6.97;;
7501;SDS011;3792;47.740;7.606;2022-12-05T04:04:44;11.10;;;7.10;;
7501;SDS011;3792;47.740;7.606;2022-12-05T04:07:16;9.50;;;6.90;;
7501;SDS011;3792;47.740;7.606;2022-12-05T04:09:46;8.77;;;6.60;;
7501;SDS011;3792;47.740;7.606;2022-12-05T04:12:18;8.10;;;6.30;;
7501;SDS011;3792;47.740;7.606;2022-12-05T04:14:50;10.17;;;6.73;;
7501;SDS011;3792;47.740;7.606;2022-12-05T04:17:24;9.73;;;6.87;;
7501;SDS011;3792;47.740;7.606;2022-12-05T04:19:56;10.70;;;7.33;;
7501;SDS011;3792;47.740;7.606;2022-12-05T04:22:44;10.50;;;7.50;;
7501;SDS011;3792;47.740;7.606;2022-12-05T04:25:12;10.43;;;7.50;;
7501;SDS011;3792;47.740;7.606;2022-12-05T04:28:03;10.43;;;6.70;;
7501;SDS011;3792;47.740;7.606;2022-12-05T04:30:39;11.90;;;7.67;;
7501;SDS011;3792;47.740;7.606;2022-12-05T04:33:14;11.87;;;7.20;;
7501;SDS011;3792;47.740;7.606;2022-12-05T04:35:49;9.67;;;6.97;;
7501;SDS011;3792;47.740;7.606;2022-12-05T04:38:19;9.43;;;6.57;;
7501;SDS011;3792;47.740;7.606;2022-12-05T04:40:52;10.80;;;7.37;;
7501;SDS011;3792;47.740;7.606;2022-12-05T04:43:22;7.90;;;6.17;;
7501;SDS011;3792;47.740;7.606;2022-12-05T04:45:51;12.40;;;7.37;;
7501;SDS011;3792;47.740;7.606;2022-12-05T04:48:22;12.10;;;7.50;;
7501;SDS011;3792;47.740;7.606;2022-12-05T04:50:53;10.63;;;6.43;;
7501;SDS011;3792;47.740;7.606;2022-12-05T04:53:22;10.67;;;6.87;;
7501;SDS011;3792;47.740;7.606;2022-12-05T04:55:53;12.60;;;8.07;;
7501;SDS011;3792;47.740;7.606;2022-12-05T04:58:23;11.17;;;7.17;;
7501;SDS011;3792;47.740;7.606;2022-12-05T05:00:53;11.70;;;8.37;;
7501;SDS011;3792;47.740;7.606;2022-12-05T05:03:27;11.90;;;7.07;;
7501;SDS011;3792;47.740;7.606;2022-12-05T05:06:00;12.47;;;7.77;;
7501;SDS011;3792;47.740;7.606;2022-12-05T05:08:28;11.60;;;7.80;;
7501;SDS011;3792;47.740;7.606;2022-12-05T05:11:06;11.53;;;8.03;;
7501;SDS011;3792;47.740;7.606;2022-12-05T05:13:36;11.87;;;8.37;;
7501;SDS011;3792;47.740;7.606;2022-12-05T05:16:03;11.50;;;7.93;;
7501;SDS011;3792;47.740;7.606;2022-12-05T05:18:33;8.93;;;6.63;;
7501;SDS011;3792;47.740;7.606;2022-12-05T05:21:00;8.50;;;6.40;;
7501;SDS011;3792;47.740;7.606;2022-12-05T05:23:27;10.00;;;6.57;;
7501;SDS011;3792;47.740;7.606;2022-12-05T05:25:54;10.20;;;8.60;;
7501;SDS011;3792;47.740;7.606;2022-12-05T05:28:22;10.03;;;7.80;;
7501;SDS011;3792;47.740;7.606;2022-12-05T05:30:49;10.63;;;7.63;;
7501;SDS011;3792;47.740;7.606;2022-12-05T05:33:16;9.80;;;7.93;;
7501;SDS011;3792;47.740;7.606;2022-12-05T05:35:44;10.17;;;8.77;;
7501;SDS011;3792;47.740;7.606;2022-12-05T05:38:11;9.27;;;7.37;;
7501;SDS011;3792;47.740;7.606;2022-12-05T05:40:38;11.00;;;7.90;;
7501;SDS011;3792;47.740;7.606;2022-12-05T05:43:05;12.63;;;7.90;;
7501;SDS011;3792;47.740;7.606;2022-12-05T05:45:33;10.47;;;8.43;;
7501;SDS011;3792;47.740;7.606;2022-12-05T05:48:02;10.47;;;7.90;;
7501;SDS011;3792;47.740;7.606;2022-12-05T05:50:30;13.03;;;8.67;;
7501;SDS011;3792;47.740;7.606;2022-12-05T05:52:58;10.57;;;8.17;;
7501;SDS011;3792;47.740;7.606;2022-12-05T05:55:25;11.07;;;8.33;;
7501;SDS011;3792;47.740;7.606;2022-12-05T05:57:52;13.10;;;8.63;;
7501;SDS011;3792;47.740;7.606;2022-12-05T06:00:19;12.53;;;7.93;;
7501;SDS011;3792;47.740;7.606;2022-12-05T06:02:47;13.53;;;8.90;;
7501;SDS011;3792;47.740;7.606;2022-12-05T06:05:14;11.80;;;8.07;;
7501;SDS011;3792;47.740;7.606;2022-12-05T06:07:41;13.33;;;8.37;;
7501;SDS011;3792;47.740;7.606;2022-12-05T06:10:10;14.00;;;9.73;;
7501;SDS011;3792;47.740;7.606;2022-12-05T06:12:37;13.60;;;9.13;;
7501;SDS011;3792;47.740;7.606;2022-12-05T06:15:04;12.73;;;8.90;;
7501;SDS011;3792;47.740;7.606;2022-12-05T06:17:32;15.87;;;8.90;;
7501;SDS011;3792;47.740;7.606;2022-12-05T06:19:59;13.57;;;9.03;;
7501;SDS011;3792;47.740;7.606;2022-12-05T06:22:26;13.63;;;9.40;;
7501;SDS011;3792;47.740;7.606;2022-12-05T06:24:55;12.07;;;8.47;;
7501;SDS011;3792;47.740;7.606;2022-12-05T06:27:23;13.37;;;9.10;;
7501;SDS011;3792;47.740;7.606;2022-12-05T06:29:50;13.23;;;8.00;;
7501;SDS011;3792;47.740;7.606;2022-12-05T06:32:18;14.60;;;9.30;;
7501;SDS011;3792;47.740;7.606;2022-12-05T06:34:45;13.20;;;9.23;;
7501;SDS011;3792;47.740;7.606;2022-12-05T06:37:12;13.70;;;9.37;;
7501;SDS011;3792;47.740;7.606;2022-12-05T06:39:39;14.23;;;8.13;;
7501;SDS011;3792;47.740;7.606;2022-12-05T06:42:06;11.63;;;7.87;;
7501;SDS011;3792;47.740;7.606;2022-12-05T06:44:35;14.97;;;9.43;;
7501;SDS011;3792;47.740;7.606;2022-12-05T06:47:02;12.13;;;8.63;;
7501;SDS011;3792;47.740;7.606;2022-12-05T06:49:29;12.73;;;8.77;;
7501;SDS011;3792;47.740;7.606;2022-12-05T06:51:58;14.20;;;8.73;;
7501;SDS011;3792;47.740;7.606;2022-12-05T06:54:26;13.73;;;8.93;;
7501;SDS011;3792;47.740;7.606;2022-12-05T06:56:53;11.17;;;8.27;;
7501;SDS011;3792;47.740;7.606;2022-12-05T06:59:20;14.13;;;8.87;;
7501;SDS011;3792;47.740;7.606;2022-12-05T07:01:48;14.27;;;9.43;;
7501;SDS011;3792;47.740;7.606;2022-12-05T07:04:15;14.40;;;9.57;;
7501;SDS011;3792;47.740;7.606;2022-12-05T07:06:48;16.03;;;10.10;;
7501;SDS011;3792;47.740;7.606;2022-12-05T07:09:16;14.90;;;9.13;;
7501;SDS011;3792;47.740;7.606;2022-12-05T07:11:45;14.00;;;9.10;;
7501;SDS011;3792;47.740;7.606;2022-12-05T07:14:12;14.57;;;9.50;;
7501;SDS011;3792;47.740;7.606;2022-12-05T07:16:39;13.67;;;8.67;;
7501;SDS011;3792;47.740;7.606;2022-12-05T07:19:08;14.03;;;8.70;;
7501;SDS011;3792;47.740;7.606;2022-12-05T07:21:35;11.23;;;8.40;;
7501;SDS011;3792;47.740;7.606;2022-12-05T07:24:02;15.10;;;8.73;;
7501;SDS011;3792;47.740;7.606;2022-12-05T07:26:30;11.00;;;8.50;;
7501;SDS011;3792;47.740;7.606;2022-12-05T07:28:57;11.73;;;8.67;;
7501;SDS011;3792;47.740;7.606;2022-12-05T07:31:24;13.33;;;9.50;;
7501;SDS011;3792;47.740;7.606;2022-12-05T07:33:53;14.93;;;9.27;;
7501;SDS011;3792;47.740;7.606;2022-12-05T07:36:22;10.73;;;8.03;;
7501;SDS011;3792;47.740;7.606;2022-12-05T07:38:53;13.40;;;9.10;;
7501;SDS011;3792;47.740;7.606;2022-12-05T07:41:22;12.93;;;8.80;;
7501;SDS011;3792;47.740;7.606;2022-12-05T07:43:50;14.53;;;8.73;;
7501;SDS011;3792;47.740;7.606;2022-12-05T07:46:17;13.10;;;8.57;;
7501;SDS011;3792;47.740;7.606;2022-12-05T07:48:45;13.97;;;8.90;;
7501;SDS011;3792;47.740;7.606;2022-12-05T07:51:13;14.27;;;10.60;;
7501;SDS011;3792;47.740;7.606;2022-12-05T07:53:42;11.20;;;8.57;;
7501;SDS011;3792;47.740;7.606;2022-12-05T07:56:10;12.63;;;9.33;;
7501;SDS011;3792;47.740;7.606;2022-12-05T07:58:41;13.63;;;9.80;;
7501;SDS011;3792;47.740;7.606;2022-12-05T08:01:09;12.93;;;8.37;;
7501;SDS011;3792;47.740;7.606;2022-12-05T08:03:37;12.80;;;9.43;;
7501;SDS011;3792;47.740;7.606;2022-12-05T08:06:05;12.57;;;9.27;;
7501;SDS011;3792;47.740;7.606;2022-12-05T08:08:34;12.93;;;9.53;;
7501;SDS011;3792;47.740;7.606;2022-12-05T08:11:04;14.60;;;8.57;;
7501;SDS011;3792;47.740;7.606;2022-12-05T08:13:32;12.00;;;8.97;;
7501;SDS011;3792;47.740;7.606;2022-12-05T08:16:00;13.47;;;8.73;;
7501;SDS011;3792;47.740;7.606;2022-12-05T08:18:27;14.40;;;9.33;;
7501;SDS011;3792;47.740;7.606;2022-12-05T08:20:55;13.87;;;7.90;;
7501;SDS011;3792;47.740;7.606;2022-12-05T08:23:26;12.57;;;8.60;;
7501;SDS011;3792;47.740;7.606;2022-12-05T08:25:54;12.90;;;8.10;;
7501;SDS011;3792;47.740;7.606;2022-12-05T08:28:22;12.47;;;8.63;;
7501;SDS011;3792;47.740;7.606;2022-12-05T08:30:50;12.43;;;8.13;;
7501;SDS011;3792;47.740;7.606;2022-12-05T08:33:17;12.03;;;8.70;;
7501;SDS011;3792;47.740;7.606;2022-12-05T08:35:44;12.90;;;8.47;;
7501;SDS011;3792;47.740;7.606;2022-12-05T08:38:11;13.13;;;9.20;;
7501;SDS011;3792;47.740;7.606;2022-12-05T08:40:38;14.77;;;9.47;;
7501;SDS011;3792;47.740;7.606;2022-12-05T08:43:05;14.23;;;9.77;;
7501;SDS011;3792;47.740;7.606;2022-12-05T08:45:34;13.03;;;9.10;;
7501;SDS011;3792;47.740;7.606;2022-12-05T08:48:01;12.53;;;9.43;;
7501;SDS011;3792;47.740;7.606;2022-12-05T08:50:28;13.03;;;9.53;;
7501;SDS011;3792;47.740;7.606;2022-12-05T08:52:55;15.73;;;9.90;;
7501;SDS011;3792;47.740;7.606;2022-12-05T08:55:22;14.73;;;10.00;;
7501;SDS011;3792;47.740;7.606;2022-12-05T08:57:49;14.03;;;10.00;;
7501;SDS011;3792;47.740;7.606;2022-12-05T09:00:16;15.70;;;10.43;;
7501;SDS011;3792;47.740;7.606;2022-12-05T09:02:45;13.80;;;9.07;;
7501;SDS011;3792;47.740;7.606;2022-12-05T09:05:16;14.50;;;10.13;;
7501;SDS011;3792;47.740;7.606;2022-12-05T09:07:43;15.37;;;10.13;;
7501;SDS011;3792;47.740;7.606;2022-12-05T09:10:10;12.07;;;8.50;;
7501;SDS011;3792;47.740;7.606;2022-12-05T09:12:37;16.13;;;9.57;;
7501;SDS011;3792;47.740;7.606;2022-12-05T09:15:06;14.27;;;10.00;;
7501;SDS011;3792;47.740;7.606;2022-12-05T09:17:35;13.63;;;9.63;;
7501;SDS011;3792;47.740;7.606;2022-12-05T09:20:05;14.57;;;9.77;;
7501;SDS011;3792;47.740;7.606;2022-12-05T09:22:33;14.90;;;9.20;;
7501;SDS011;3792;47.740;7.606;2022-12-05T09:25:00;16.60;;;10.20;;
7501;SDS011;3792;47.740;7.606;2022-12-05T09:27:28;13.40;;;8.87;;
7501;SDS011;3792;47.740;7.606;2022-12-05T09:29:55;13.53;;;9.73;;
7501;SDS011;3792;47.740;7.606;2022-12-05T09:32:22;13.33;;;9.73;;
7501;SDS011;3792;47.740;7.606;2022-12-05T09:34:49;14.10;;;9.67;;
7501;SDS011;3792;47.740;7.606;2022-12-05T09:37:18;14.50;;;10.00;;
7501;SDS011;3792;47.740;7.606;2022-12-05T09:39:45;12.30;;;9.37;;
7501;SDS011;3792;47.740;7.606;2022-12-05T09:42:16;11.17;;;8.40;;
7501;SDS011;3792;47.740;7.606;2022-12-05T09:45:14;12.73;;;9.00;;
7501;SDS011;3792;47.740;7.606;2022-12-05T09:47:49;13.23;;;8.93;;
7501;SDS011;3792;47.740;7.606;2022-12-05T09:50:21;13.40;;;8.50;;
7501;SDS011;3792;47.740;7.606;2022-12-05T09:52:54;12.43;;;8.90;;
7501;SDS011;3792;47.740;7.606;2022-12-05T09:55:34;13.13;;;8.63;;
7501;SDS011;3792;47.740;7.606;2022-12-05T10:01:20;14.07;;;8.87;;
7501;SDS011;3792;47.740;7.606;2022-12-05T10:03:59;10.83;;;7.83;;
7501;SDS011;3792;47.740;7.606;2022-12-05T10:06:44;11.13;;;8.30;;
7501;SDS011;3792;47.740;7.606;2022-12-05T10:09:24;10.93;;;7.70;;
7501;SDS011;3792;47.740;7.606;2022-12-05T10:12:01;12.87;;;9.20;;
7501;SDS011;3792;47.740;7.606;2022-12-05T10:14:41;11.17;;;8.47;;
7501;SDS011;3792;47.740;7.606;2022-12-05T10:17:18;11.27;;;7.97;;
7501;SDS011;3792;47.740;7.606;2022-12-05T10:19:48;9.93;;;7.13;;
7501;SDS011;3792;47.740;7.606;2022-12-05T10:22:18;8.73;;;7.13;;
7501;SDS011;3792;47.740;7.606;2022-12-05T10:24:53;12.97;;;7.90;;
7501;SDS011;3792;47.740;7.606;2022-12-05T10:27:26;12.30;;;7.83;;
7501;SDS011;3792;47.740;7.606;2022-12-05T10:30:00;11.17;;;7.73;;
7501;SDS011;3792;47.740;7.606;2022-12-05T10:32:30;10.60;;;7.50;;
7501;SDS011;3792;47.740;7.606;2022-12-05T10:35:08;10.73;;;7.43;;
7501;SDS011;3792;47.740;7.606;2022-12-05T10:37:41;10.17;;;7.67;;
7501;SDS011;3792;47.740;7.606;2022-12-05T10:40:14;10.80;;;7.53;;
7501;SDS011;3792;47.740;7.606;2022-12-05T10:42:41;10.57;;;8.20;;
7501;SDS011;3792;47.740;7.606;2022-12-05T10:45:13;8.57;;;6.80;;
7501;SDS011;3792;47.740;7.606;2022-12-05T10:47:42;10.23;;;7.37;;
7501;SDS011;3792;47.740;7.606;2022-12-05T10:50:16;8.93;;;6.80;;
7501;SDS011;3792;47.740;7.606;2022-12-05T10:52:48;8.60;;;6.90;;
7501;SDS011;3792;47.740;7.606;2022-12-05T10:55:18;8.70;;;6.70;;
7501;SDS011;3792;47.740;7.606;2022-12-05T10:57:49;7.90;;;6.37;;
7501;SDS011;3792;47.740;7.606;2022-12-05T11:00:19;7.33;;;5.90;;
7501;SDS011;3792;47.740;7.606;2022-12-05T11:02:49;9.07;;;6.00;;
7501;SDS011;3792;47.740;7.606;2022-12-05T11:05:26;8.60;;;6.73;;
7501;SDS011;3792;47.740;7.606;2022-12-05T11:07:54;8.77;;;6.20;;
7501;SDS011;3792;47.740;7.606;2022-12-05T11:10:26;9.80;;;6.40;;
7501;SDS011;3792;47.740;7.606;2022-12-05T11:12:58;10.23;;;6.50;;
7501;SDS011;3792;47.740;7.606;2022-12-05T11:15:26;8.33;;;6.47;;
7501;SDS011;3792;47.740;7.606;2022-12-05T11:17:55;7.43;;;6.20;;
7501;SDS011;3792;47.740;7.606;2022-12-05T11:20:34;7.23;;;5.30;;
7501;SDS011;3792;47.740;7.606;2022-12-05T11:23:15;7.27;;;5.30;;
7501;SDS011;3792;47.740;7.606;2022-12-05T11:25:49;7.10;;;5.20;;
7501;SDS011;3792;47.740;7.606;2022-12-05T11:28:26;9.00;;;5.53;;
7501;SDS011;3792;47.740;7.606;2022-12-05T11:30:56;7.90;;;6.00;;
7501;SDS011;3792;47.740;7.606;2022-12-05T11:33:25;7.07;;;5.00;;
7501;SDS011;3792;47.740;7.606;2022-12-05T11:35:55;6.73;;;5.10;;
7501;SDS011;3792;47.740;7.606;2022-12-05T11:38:27;7.40;;;5.57;;
7501;SDS011;3792;47.740;7.606;2022-12-05T11:40:59;6.60;;;5.80;;
7501;SDS011;3792;47.740;7.606;2022-12-05T11:43:41;6.40;;;4.97;;
7501;SDS011;3792;47.740;7.606;2022-12-05T11:46:30;6.40;;;5.10;;
7501;SDS011;3792;47.740;7.606;2022-12-05T11:52:02;7.87;;;5.63;;
7501;SDS011;3792;47.740;7.606;2022-12-05T11:54:44;8.37;;;5.93;;
7501;SDS011;3792;47.740;7.606;2022-12-05T11:57:35;7.60;;;5.13;;
7501;SDS011;3792;47.740;7.606;2022-12-05T12:00:18;6.40;;;5.30;;
7501;SDS011;3792;47.740;7.606;2022-12-05T12:02:53;8.33;;;5.80;;
7501;SDS011;3792;47.740;7.606;2022-12-05T12:05:52;6.40;;;5.67;;
7501;SDS011;3792;47.740;7.606;2022-12-05T12:08:29;5.90;;;5.20;;
7501;SDS011;3792;47.740;7.606;2022-12-05T12:11:07;5.53;;;4.63;;
7501;SDS011;3792;47.740;7.606;2022-12-05T12:13:44;9.87;;;6.20;;
7501;SDS011;3792;47.740;7.606;2022-12-05T12:16:29;9.47;;;6.30;;
7501;SDS011;3792;47.740;7.606;2022-12-05T12:19:09;5.87;;;5.00;;
7501;SDS011;3792;47.740;7.606;2022-12-05T12:21:49;4.97;;;4.47;;
7501;SDS011;3792;47.740;7.606;2022-12-05T12:24:30;5.27;;;4.40;;
7501;SDS011;3792;47.740;7.606;2022-12-05T12:27:04;5.87;;;4.83;;
7501;SDS011;3792;47.740;7.606;2022-12-05T12:29:45;5.07;;;4.53;;
7501;SDS011;3792;47.740;7.606;2022-12-05T12:32:28;5.40;;;4.37;;
7501;SDS011;3792;47.740;7.606;2022-12-05T12:37:57;4.77;;;3.70;;
7501;SDS011;3792;47.740;7.606;2022-12-05T12:40:42;4.90;;;4.40;;
7501;SDS011;3792;47.740;7.606;2022-12-05T12:43:17;4.07;;;3.37;;
7501;SDS011;3792;47.740;7.606;2022-12-05T12:46:03;4.47;;;3.80;;
7501;SDS011;3792;47.740;7.606;2022-12-05T12:48:55;4.87;;;3.97;;
7501;SDS011;3792;47.740;7.606;2022-12-05T12:51:30;3.80;;;3.50;;
7501;SDS011;3792;47.740;7.606;2022-12-05T12:54:03;3.60;;;3.30;;
7501;SDS011;3792;47.740;7.606;2022-12-05T12:56:42;4.90;;;3.77;;
7501;SDS011;3792;47.740;7.606;2022-12-05T12:59:21;2.83;;;2.63;;
7501;SDS011;3792;47.740;7.606;2022-12-05T13:02:03;2.90;;;2.70;;
7501;SDS011;3792;47.740;7.606;2022-12-05T13:04:39;3.00;;;2.77;;
7501;SDS011;3792;47.740;7.606;2022-12-05T13:07:13;2.93;;;2.57;;
7501;SDS011;3792;47.740;7.606;2022-12-05T13:09:45;3.10;;;2.80;;
7501;SDS011;3792;47.740;7.606;2022-12-05T13:12:20;2.87;;;2.67;;
7501;SDS011;3792;47.740;7.606;2022-12-05T13:14:53;2.70;;;2.50;;
7501;SDS011;3792;47.740;7.606;2022-12-05T13:17:25;2.93;;;2.73;;
7501;SDS011;3792;47.740;7.606;2022-12-05T13:19:55;2.77;;;2.57;;
7501;SDS011;3792;47.740;7.606;2022-12-05T13:22:23;2.93;;;2.50;;
7501;SDS011;3792;47.740;7.606;2022-12-05T13:24:53;4.50;;;2.70;;
7501;SDS011;3792;47.740;7.606;2022-12-05T13:27:22;2.73;;;2.53;;
7501;SDS011;3792;47.740;7.606;2022-12-05T13:29:52;2.90;;;2.57;;
7501;SDS011;3792;47.740;7.606;2022-12-05T13:32:27;2.80;;;2.60;;
7501;SDS011;3792;47.740;7.606;2022-12-05T13:34:57;2.97;;;2.77;;
7501;SDS011;3792;47.740;7.606;2022-12-05T13:37:26;2.57;;;2.37;;
7501;SDS011;3792;47.740;7.606;2022-12-05T13:40:24;2.60;;;2.40;;
7501;SDS011;3792;47.740;7.606;2022-12-05T13:43:14;3.23;;;2.93;;
7501;SDS011;3792;47.740;7.606;2022-12-05T13:45:53;4.00;;;3.30;;
7501;SDS011;3792;47.740;7.606;2022-12-05T13:48:29;3.20;;;2.93;;
7501;SDS011;3792;47.740;7.606;2022-12-05T13:51:01;3.40;;;2.90;;
7501;SDS011;3792;47.740;7.606;2022-12-05T13:53:34;3.67;;;3.37;;
7501;SDS011;3792;47.740;7.606;2022-12-05T13:56:04;4.43;;;3.10;;
7501;SDS011;3792;47.740;7.606;2022-12-05T13:58:49;3.67;;;3.23;;
7501;SDS011;3792;47.740;7.606;2022-12-05T14:04:23;3.27;;;3.00;;
7501;SDS011;3792;47.740;7.606;2022-12-05T14:07:13;3.43;;;3.13;;
7501;SDS011;3792;47.740;7.606;2022-12-05T14:10:04;3.70;;;3.40;;
7501;SDS011;3792;47.740;7.606;2022-12-05T14:12:46;4.53;;;2.93;;
7501;SDS011;3792;47.740;7.606;2022-12-05T14:15:24;3.37;;;3.07;;
7501;SDS011;3792;47.740;7.606;2022-12-05T14:17:58;3.97;;;3.57;;
7501;SDS011;3792;47.740;7.606;2022-12-05T14:20:31;4.03;;;3.73;;
7501;SDS011;3792;47.740;7.606;2022-12-05T14:23:22;5.37;;;3.77;;
7501;SDS011;3792;47.740;7.606;2022-12-05T14:26:17;5.67;;;4.77;;
7501;SDS011;3792;47.740;7.606;2022-12-05T14:29:02;5.13;;;4.63;;
7501;SDS011;3792;47.740;7.606;2022-12-05T14:31:44;3.67;;;3.33;;
7501;SDS011;3792;47.740;7.606;2022-12-05T14:34:23;3.50;;;2.90;;
7501;SDS011;3792;47.740;7.606;2022-12-05T14:36:55;3.67;;;3.30;;
7501;SDS011;3792;47.740;7.606;2022-12-05T14:39:30;3.83;;;3.30;;
7501;SDS011;3792;47.740;7.606;2022-12-05T14:42:02;3.97;;;3.60;;
7501;SDS011;3792;47.740;7.606;2022-12-05T14:44:32;4.10;;;3.67;;
7501;SDS011;3792;47.740;7.606;2022-12-05T14:47:00;4.47;;;4.07;;
7501;SDS011;3792;47.740;7.606;2022-12-05T14:49:34;4.13;;;3.27;;
7501;SDS011;3792;47.740;7.606;2022-12-05T14:52:19;4.10;;;3.73;;
7501;SDS011;3792;47.740;7.606;2022-12-05T14:54:49;4.60;;;3.80;;
7501;SDS011;3792;47.740;7.606;2022-12-05T14:57:17;4.30;;;3.60;;
7501;SDS011;3792;47.740;7.606;2022-12-05T14:59:48;3.43;;;3.13;;
7501;SDS011;3792;47.740;7.606;2022-12-05T15:02:19;10.70;;;5.73;;
7501;SDS011;3792;47.740;7.606;2022-12-05T15:04:51;5.53;;;3.47;;
7501;SDS011;3792;47.740;7.606;2022-12-05T15:07:28;5.60;;;3.90;;
7501;SDS011;3792;47.740;7.606;2022-12-05T15:09:59;5.07;;;4.13;;
7501;SDS011;3792;47.740;7.606;2022-12-05T15:12:31;5.00;;;4.50;;
7501;SDS011;3792;47.740;7.606;2022-12-05T15:15:05;5.60;;;5.03;;
7501;SDS011;3792;47.740;7.606;2022-12-05T15:17:42;5.70;;;4.10;;
7501;SDS011;3792;47.740;7.606;2022-12-05T15:20:16;4.87;;;4.07;;
7501;SDS011;3792;47.740;7.606;2022-12-05T15:22:49;3.47;;;3.17;;
7501;SDS011;3792;47.740;7.606;2022-12-05T15:28:03;3.50;;;3.20;;
7501;SDS011;3792;47.740;7.606;2022-12-05T15:30:32;3.70;;;2.70;;
7501;SDS011;3792;47.740;7.606;2022-12-05T15:33:03;3.20;;;2.83;;
7501;SDS011;3792;47.740;7.606;2022-12-05T15:35:36;3.90;;;3.47;;
7501;SDS011;3792;47.740;7.606;2022-12-05T15:38:06;4.20;;;3.40;;
7501;SDS011;3792;47.740;7.606;2022-12-05T15:40:43;6.77;;;4.97;;
7501;SDS011;3792;47.740;7.606;2022-12-05T15:46:17;4.27;;;3.33;;
7501;SDS011;3792;47.740;7.606;2022-12-05T15:48:49;5.00;;;3.63;;
7501;SDS011;3792;47.740;7.606;2022-12-05T15:51:17;3.60;;;3.17;;
7501;SDS011;3792;47.740;7.606;2022-12-05T15:53:47;4.97;;;3.40;;